Potsdam, NY (13676)

3:58 PM EST on February 13, 2016 (GMT -0500)
NonFedAWOS | | Change Station
CLOSE
Current Station
Personal Weather Station
Location: Potsdam, NY
Elevation: 473 ft
Nearby Weather Stations
Active Advisory: Wind Chill Warning Active Notice: Public Information Statement

Elev 473 ft 44.68 °N, 74.95 °W | Updated 20 minutes ago

Overcast
Overcast
-11 °F
Feels Like -32 °F
N
13
Wind Variable Wind from NW
Gusts 18.0 mph

Today
High -- | Low -- °F
--% Chance of Precip.
Yesterday
High -- | Low -- °F
Precip. -- in
Pressure 30.35 in
Visibility 7.0 miles
Clouds Overcast 3500 ft
Windchill -32 °F
Dew Point -22 °F
Humidity 58%
Rainfall in
Snow Depth Not available.
7:03 AM 5:24 PM
Waxing Crescent, 34% visible
METAR KMSS 132053Z AUTO 28017G20KT 7SM OVC035 M24/M32 A3030 RMK AO2 SLP275 T12441322 53022
Pressure 30.35 in
Visibility 7.0 miles
Clouds Overcast 3500 ft
Windchill -32 °F
Dew Point -22 °F
Humidity 58%
Rainfall in
Snow Depth Not available.
7:03 AM 5:24 PM
Waxing Crescent, 34% visible
METAR KMSS 132053Z AUTO 28017G20KT 7SM OVC035 M24/M32 A3030 RMK AO2 SLP275 T12441322 53022

10-Day Weather Forecast

Almanac

Astronomy

Feb. 13, 2016 Rise Set
Actual Time
Civil Twilight
Nautical Twilight
Astronomical Twilight
Moon
Length of Visible Light
Length of Day
Tomorrow will be .
, % of the Moon is Illuminated

Today's Extremes

State Highs State Lows

Community

WunderPhotos

Upload Photos

1,892,666 photos uploaded!

WunderBlog® & News

Nearby

Air Quality

  Air Quality AQ Index Pollutant
Not available.

Snow Depth

Station Depth Elevation

Earthquake Activity

City Distance Mag. Time & Date
Minimum magnitude displayed is 2.5.

Coastal Water Temperatures

Place Temperature

Stations

Nearby Weather Stations

Station Location Temp. Windchill Dew Point Humidity Wind Precip. Elev Updated Type
                   

Watches & Warnings

Wind Chill Warning
Issued: 3:15 PM EST Feb. 13, 2016 – National Weather Service

... Wind chill warning remains in effect until 7 PM EST Sunday...

The National Weather Service in Burlington continues the wind
chill warning... until 7 PM EST Sunday.

* Locations... all of northern New York... as well as central and
northern Vermont.

* Hazard types... dangerously low wind chill values.

* Wind chill readings... 30 to 45 below... from the combination of
temperatures of 15 to 25 below zero... and northwest winds of 10
to 20 mph with gusts up to 30 mph.

* Timing... tonight and Sunday... with some improvement due to
lower wind speeds on Sunday.

* Impacts... potential frostbite and hypothermia.

Precautionary/preparedness actions...

A wind chill warning means the combination of very cold air and
strong winds will create dangerously low wind chill values. This
will result in frostbite and lead to hypothermia or death if
precautions are not taken.

Please stay tuned to NOAA Weather Radio... your local media... or
go to www.Weather.Gov/Burlington for further updates on this
weather situation.